Highlands Peak, California Weather observations

Data are for observation ending at time listed.
 Day   Time    Ave.   Ave.  Ave.  Vector   Max.   Stn.    Total    Solar   Ave.  
  of    of     Air    Rel.  Wind   Wind    Wind   Baro.  Precip.   Rad.    Soil  
Year   Day     Temp.  Hum.  Speed  Dir.    Gust   Pres.                    Temp. 
2014   (PST)    F      %     mph   deg.    mph     mb.     in.     W/m2     F   
------------------------------------------------------------------------------
 329    2:50   59.4    15    3.6   111      4.7   941.2    0.00       0    52.5
 329    3:00   61.1    13    4.2   138      6.3   941.1    0.00       0    52.4
 329    3:10   61.0    14    6.0   155      8.3   941.1    0.00       0    51.9
 329    3:20   59.6    14    6.9   154      8.0   941.0    0.00       0    51.4
 329    3:30   59.9    14    5.3   146      5.9   941.1    0.00       0    51.2
 329    3:40   60.6    13    3.7   141      4.8   941.1    0.00       0    51.5
 329    3:50   61.3    13    4.4   138      5.6   941.0    0.00       0    51.6
 329    4:00   61.5    13    4.0   139      4.8   940.9    0.00       0    51.7
 329    4:10   61.7    12    4.7   147      5.5   940.8    0.00       0    51.6
 329    4:20   61.3    13    5.5   172      5.9   940.9    0.00       0    51.6
 329    4:30   61.3    12    5.5   183      6.6   941.0    0.00       0    52.0
 329    4:40   61.4    13    5.1   172      6.2   941.0    0.00       0    52.0
 329    4:50   61.4    12    4.0   208      4.8   941.1    0.00       0    52.2
 329    5:00   62.0    12    3.3   190      3.7   941.2    0.00       0    52.4
 329    5:10   62.0    12    3.0   168      3.9   941.3    0.00       0    52.3
 329    5:20   62.3    12    2.8   159      3.3   941.4    0.00       0    52.0
 329    5:30   62.0    12    2.9   124      3.5   941.4    0.00       0    51.9
 329    5:40   62.3    12    3.3   124      4.2   941.4    0.00       0    51.8
 329    5:50   62.5    12    3.3   127      3.9   941.5    0.00       0    51.7
 329    6:00   62.8    12    1.7   182      3.3   941.5    0.00       0    51.8
 329    6:10   63.0    12    1.5   299      3.5   941.7    0.00       0    51.9
 329    6:20   62.4    13    0.9    99      2.8   941.8    0.00       0    52.1
 329    6:30   62.1    14    1.5   121      2.1   941.8    0.00       0    52.0
 329    6:40   61.8    13    0.8    87      1.5   941.8    0.00       1    51.8
 329    6:50   62.0    14    0.7    16      1.5   941.9    0.00       2    51.9
 329    7:00   61.4    15    1.2    56      2.9   941.9    0.00       5    52.0
 329    7:10   60.9    17    1.1    59      2.2   942.0    0.00       9    52.1
 329    7:20   60.5    14    3.4   316      4.3   942.1    0.00      12    52.0
 329    7:30   60.0    15    1.6    32      3.4   942.1    0.00      30    52.0
 329    7:40   62.1    13    2.5   355      3.1   942.1    0.00     128    52.0
 329    7:50   63.0    15    1.8     8      3.1   942.2    0.00     159    52.0
 329    8:00   63.8    14    1.2   330      3.0   942.4    0.00     191    51.9
 329    8:10   63.9    12    1.0   297      1.8   942.4    0.00     223    51.8
 329    8:20   64.7    14    2.1    87      3.3   942.5    0.00     254    51.9
 329    8:30   65.6    17    2.9   100      3.6   942.4    0.00     284    51.9
 329    8:40   65.9    17    3.2   142      4.4   942.4    0.00     314    51.9
 329    8:50   66.3    14    2.3   223      3.8   942.4    0.00     344    51.9
 329    9:00   66.7    18    1.7   144      3.5   942.4    0.00     372    51.9
 329    9:10   67.6    17    2.0   210      3.7   942.5    0.00     399    52.0
 329    9:20   65.4    16    2.4   215      3.4   942.6    0.00     424    52.0
 329    9:30   66.9    17    2.5   180      4.0   942.7    0.00     448    52.1
 329    9:40   67.9    17    3.0   173      5.3   942.7    0.00     471    52.2
 329    9:50   67.8    19    2.1   160      3.8   942.7    0.00     493    52.4
 329   10:00   67.9    18    1.8   215      3.9   942.8    0.00     513    52.5
 329   10:10   67.3    18    2.4   217      3.9   942.9    0.00     531    52.7
 329   10:20   66.3    21    2.8   221      5.4   942.9    0.00     547    52.9
 329   10:30   67.7    20    2.5   218      5.2   942.9    0.00     562    53.1
 329   10:40   66.0    21    1.8   251      4.2   942.9    0.00     575    53.3
 329   10:50   66.0    21    2.0   230      5.0   942.9    0.00     586    53.6
 329   11:00   65.7    22    2.6   264      4.5   942.8    0.00     596    53.8
 329   11:10   64.9    22    2.2   259      4.2   942.7    0.00     603    54.1
 329   11:20   64.8    23    2.8   271      5.2   942.7    0.00     608    54.4
 329   11:30   64.9    24    2.5   265      4.4   942.6    0.00     612    54.6
 329   11:40   65.9    25    1.7   266      4.5   942.4    0.00     614    54.9
 329   11:50   65.5    25    3.2   262      4.6   942.3    0.00     615    55.1
 329   12:00   65.4    25    3.6   265      4.9   942.1    0.00     614    55.4
 329   12:10   65.2    26    2.8   267      4.5   942.0    0.00     612    55.7
 329   12:20   65.3    27    2.9   279      5.1   941.9    0.00     607    56.0
 329   12:30   65.1    28    3.1   280      5.0   941.8    0.00     601    56.2
 329   12:40   64.9    28    3.0   276      5.1   941.7    0.00     592    56.6
 329   12:50   65.5    28    2.1   266      3.8   941.5    0.00     583    56.9
 329   13:00   65.9    29    2.4   276      4.2   941.5    0.00     572    57.1
 329   13:10   65.9    28    2.8   273      5.3   941.4    0.00     559    57.5
 329   13:20   65.7    28    2.7   263      4.9   941.3    0.00     545    57.8
 329   13:30   66.6    28    1.9   258      4.2   941.2    0.00     528    58.1
 329   13:40   66.9    28    1.9   244      4.6   941.1    0.00     510    58.4
 329   13:50   67.2    26    2.6   249      4.2   941.1    0.00     490    58.7
 329   14:00   67.3    27    1.6   259      4.0   941.1    0.00     470    59.0
 329   14:10   68.0    26    2.5   276      3.7   941.0    0.00     448    59.3
 329   14:20   67.6    25    1.9   266      4.7   941.0    0.00     424    59.7
 329   14:30   68.4    26    2.4   262      4.5   940.9    0.00     399    59.9
 329   14:40   68.4    26    2.4   256      4.2   940.9    0.00     373    60.2
 329   14:50   68.3    26    2.5   259      4.2   940.8    0.00     346    60.4
 329   15:00   68.3    26    2.1   267      3.8   940.8    0.00     317    60.6
 329   15:10   67.8    26    1.7   283      3.6   940.8    0.00     289    60.9
 329   15:20   68.4    26    1.6   257      3.3   940.8    0.00     252    61.1
 329   15:30   68.8    26    1.7   272      3.5   940.8    0.00     231    61.2
 329   15:40   68.3    25    1.0   139      2.6   940.8    0.00     202    61.3
 329   15:50   67.2    26    2.3   157      3.4   940.7    0.00     174    61.5
 329   16:00   68.6    24    2.7   175      4.0   940.8    0.00     148    61.6
 329   16:10   69.3    25    1.9   212      3.6   940.8    0.00     123    61.7
 329   16:20   68.5    25    1.5   174      2.7   940.7    0.00      99    61.8
 329   16:30   66.5    25    2.7   153      3.5   940.6    0.00      76    61.9
 329   16:40   67.0    25    0.7   124      1.5   940.5    0.00      52    62.0
 329   16:50   66.1    27    1.2   100      1.6   940.5    0.00      30    62.0
 329   17:00   64.6    29    1.1    23      2.4   940.5    0.00      11    62.0
 329   17:10   63.7    27    0.7   350      2.3   940.4    0.00       2    61.9
 329   17:20   63.1    29    1.5    47      2.9   940.4    0.00       1    61.9
 329   17:30   62.7    31    1.6    53      3.7   940.4    0.00       0    61.8
 329   17:40   62.8    30    0.6    70      2.2   940.4    0.00       0    61.8
 329   17:50   63.4    29    1.4    66      3.9   940.5    0.00       0    61.7
 329   18:00   63.4    29    2.7    96      3.9   940.4    0.00       0    61.6
 329   18:10   63.5    29    2.1    84      3.5   940.5    0.00       0    61.5
 329   18:20   63.5    28    2.2    83      3.8   940.5    0.00       0    61.4
 329   18:30   64.1    27    1.3    84      2.3   940.6    0.00       0    61.3
 329   18:40   64.6    26    2.6    82      3.6   940.6    0.00       0    61.2
 329   18:50   64.5    26    1.5   106      3.0   940.6    0.00       0    61.1
 329   19:00   65.2    25    1.4   107      2.3   940.6    0.00       0    60.9
 329   19:10   65.5    24    2.0   109      2.9   940.6    0.00       0    60.8
 329   19:20   65.7    23    2.1    89      2.9   940.6    0.00       0    60.7
 329   19:30   65.8    23    2.9    91      5.2   940.6    0.00       0    60.6
 329   19:40   65.3    22    3.9   102      5.3   940.5    0.00       0    60.5
 329   19:50   65.4    23    1.9    88      3.9   940.5    0.00       0    60.4
 329   20:00   65.6    22    2.5    61      4.7   940.5    0.00       0    60.3
 329   20:10   65.0    22    4.2    92      6.2   940.4    0.00       0    60.2
 329   20:20   65.6    21    2.5    87      3.9   940.4    0.00       0    60.0
 329   20:30   66.0    21    0.6   355      2.9   940.5    0.00       0    59.9
 329   20:40   66.0    23    0.5   192      1.5   940.4    0.00       0    59.8
 329   20:50   66.0    23    1.8   125      3.1   940.4    0.00       0    59.7
 329   21:00   66.9    22    3.3   177      3.9   940.4    0.00       0    59.5
 329   21:10   67.1    21    2.6   179      3.4   940.4    0.00       0    59.5
 329   21:20   67.0    21    1.7   164      2.6   940.4    0.00       0    59.3
 329   21:30   67.0    20    1.2    91      3.4   940.4    0.00       0    59.2
 329   21:40   66.2    19    3.5    68      5.0   940.4    0.00       0    59.1
 329   21:50   66.2    19    3.4    68      5.1   940.5    0.00       0    59.0
 329   22:00   65.9    19    4.3    64      5.4   940.5    0.00       0    58.9
 329   22:10   66.6    19    2.4    64      3.6   940.4    0.00       0    58.8
 329   22:20   67.3    18    2.6    59      4.3   940.3    0.00       0    58.7
 329   22:30   67.2    17    2.0    54      3.4   940.2    0.00       0    58.6
 329   22:40   67.6    17    2.7    43      3.4   940.2    0.00       0    58.5
 329   22:50   67.5    18    1.5   308      2.6   940.2    0.00       0    58.4
 329   23:00   67.5    19    1.2   272      1.8   940.1    0.00       0    58.4
 329   23:10   67.3    20    0.9   267      1.2   940.1    0.00       0    58.3
 329   23:20   67.0    20    0.4   268      1.2   940.1    0.00       0    58.2
 329   23:30   66.5    20    0.4   268      1.5   940.0    0.00       0    58.1
 329   23:40   65.9    20    0.0     0      0.0   940.0    0.00       0    57.9
 329   23:50   66.1    20    2.2   162      2.9   940.0    0.00       0    57.7
 330    0:00   66.1    21    1.7   155      2.3   939.9    0.00       0    57.4
 330    0:10   66.1    20    2.5   100      3.7   939.8    0.00       0    57.3
 330    0:20   66.2    17    4.5    90      6.7   939.6    0.00       0    57.5
 330    0:30   66.4    17    3.1    75      5.9   939.5    0.00       0    57.5
 330    0:40   66.5    19    2.0   309      4.1   939.5    0.00       0    57.4
 330    0:50   66.2    18    1.0    32      2.3   939.5    0.00       0    57.4
 330    1:00   65.6    18    3.9    73      5.0   939.4    0.00       0    57.3
 330    1:10   65.2    19    2.6    75      3.9   939.3    0.00       0    57.3
 330    1:20   65.3    18    2.2    81      3.3   939.3    0.00       0    57.2
 330    1:30   65.8    18    1.4    95      3.0   939.2    0.00       0    57.1
 330    1:40   66.3    18    0.2    65      2.0   939.2    0.00       0    57.1
 330    1:50   66.3    18    0.9    72      2.1   939.3    0.00       0    57.0
 330    2:00   65.9    19    2.0   100      2.9   939.1    0.00       0    57.0
 330    2:10   66.0    20    1.0   134      1.8   939.0    0.00       0    56.8
 330    2:20   66.7    20    0.8   130      1.3   938.9    0.00       0    56.8
 330    2:30   66.7    18    2.2    87      3.7   938.8    0.00       0    56.7
 330    2:40   66.9    18    1.3    25      3.1   938.8    0.00       0    56.7

Return to Highlands Peak graphs page.


Western Regional Climate Center,wrcc@dri.edu